createdAt,value
2022-08-11T00:01:25.385Z,19.40
2022-08-11T00:04:14.564Z,19.30
2022-08-11T00:07:06.940Z,19.20
2022-08-11T00:09:58.232Z,19.20
2022-08-11T00:12:53.113Z,19.20
2022-08-11T00:15:45.726Z,19.30
2022-08-11T00:18:42.092Z,19.30
2022-08-11T00:21:54.695Z,19.30
2022-08-11T00:24:53.523Z,19.20
2022-08-11T00:27:44.352Z,19.20
2022-08-11T00:30:40.738Z,19.20
2022-08-11T00:33:41.070Z,19.20
2022-08-11T00:36:47.076Z,18.90
2022-08-11T00:39:43.665Z,19.10
2022-08-11T00:42:46.519Z,19.10
2022-08-11T00:45:43.612Z,19.10
2022-08-11T00:48:46.573Z,19.00
2022-08-11T00:52:03.863Z,19.00
2022-08-11T00:55:34.424Z,19.00
2022-08-11T00:58:59.536Z,18.90
2022-08-11T01:02:07.712Z,18.80
2022-08-11T01:05:35.540Z,18.70
2022-08-11T01:09:01.393Z,18.70
2022-08-11T01:12:30.144Z,18.70
2022-08-11T01:15:56.995Z,18.70
2022-08-11T01:19:30.013Z,18.60
2022-08-11T01:23:17.830Z,18.60
2022-08-11T01:26:57.678Z,18.70
2022-08-11T01:30:20.016Z,18.60
2022-08-11T01:33:54.654Z,18.50
2022-08-11T01:37:14.451Z,18.40
2022-08-11T01:40:32.497Z,18.40
2022-08-11T01:44:20.269Z,18.40
2022-08-11T01:47:37.724Z,18.40
2022-08-11T01:50:58.060Z,18.40
2022-08-11T01:53:55.048Z,18.40
2022-08-11T01:56:57.189Z,18.40
2022-08-11T01:59:50.528Z,18.40
2022-08-11T02:02:54.113Z,18.40
2022-08-11T02:05:56.361Z,18.20
2022-08-11T02:08:53.249Z,18.20
2022-08-11T02:11:43.778Z,18.20
2022-08-11T02:14:41.086Z,18.10
2022-08-11T02:18:00.387Z,18.20
2022-08-11T02:21:16.403Z,18.20
2022-08-11T02:24:17.443Z,18.30
2022-08-11T02:27:11.195Z,18.10
2022-08-11T02:30:07.447Z,18.20
2022-08-11T02:33:23.300Z,18.20
2022-08-11T02:36:20.245Z,18.20
2022-08-11T02:39:12.729Z,18.10
2022-08-11T02:42:32.731Z,18.20
2022-08-11T02:45:40.887Z,18.00
2022-08-11T02:48:58.171Z,18.00
2022-08-11T02:52:04.632Z,18.00
2022-08-11T02:55:03.484Z,18.00
2022-08-11T02:57:58.099Z,17.80
2022-08-11T03:00:58.544Z,17.70
2022-08-11T03:03:54.473Z,17.70
2022-08-11T03:06:53.473Z,17.70
2022-08-11T03:09:49.767Z,17.70
2022-08-11T03:13:18.750Z,17.90
2022-08-11T03:16:35.262Z,17.70
2022-08-11T03:19:31.971Z,17.50
2022-08-11T03:22:25.876Z,17.60
2022-08-11T03:25:30.494Z,17.40
2022-08-11T03:28:30.629Z,17.50
2022-08-11T03:31:25.567Z,17.40
2022-08-11T03:34:19.504Z,17.40
2022-08-11T03:37:47.427Z,17.30
2022-08-11T03:41:02.416Z,17.60
2022-08-11T03:44:04.652Z,17.60
2022-08-11T03:47:09.261Z,17.30
2022-08-11T03:50:06.475Z,17.40
2022-08-11T03:53:06.463Z,17.50
2022-08-11T03:56:20.012Z,17.40
2022-08-11T03:59:39.689Z,17.40
2022-08-11T04:03:05.753Z,17.50
2022-08-11T04:06:42.169Z,17.40
2022-08-11T04:10:08.570Z,17.40
2022-08-11T04:13:36.568Z,17.60
2022-08-11T04:16:47.360Z,17.60
2022-08-11T04:20:02.172Z,17.50
2022-08-11T04:24:34.892Z,17.60
2022-08-11T04:27:19.352Z,17.60
2022-08-11T04:30:14.992Z,17.70
2022-08-11T04:33:36.585Z,18.00
2022-08-11T04:37:05.302Z,17.70
2022-08-11T04:40:13.808Z,17.70
2022-08-11T04:43:25.870Z,17.60
2022-08-11T04:46:29.881Z,17.80
2022-08-11T04:49:57.598Z,17.80
2022-08-11T04:53:25.395Z,17.90
2022-08-11T04:56:36.034Z,18.00
2022-08-11T05:00:23.463Z,18.00
2022-08-11T05:03:52.034Z,18.00
2022-08-11T05:07:12.773Z,18.10
2022-08-11T05:10:22.942Z,18.00
2022-08-11T05:13:30.636Z,18.00
2022-08-11T05:16:42.752Z,18.10
2022-08-11T05:19:49.030Z,18.20
2022-08-11T05:23:06.189Z,18.30
2022-08-11T05:26:46.910Z,18.30
2022-08-11T05:30:00.432Z,18.40
2022-08-11T05:33:17.229Z,18.70
2022-08-11T05:36:13.822Z,18.90
2022-08-11T05:39:36.479Z,18.70
2022-08-11T05:42:48.491Z,19.30
2022-08-11T05:46:03.636Z,19.00
2022-08-11T05:49:11.636Z,19.10
2022-08-11T05:52:19.185Z,19.20
2022-08-11T05:55:29.902Z,19.50
2022-08-11T05:58:21.502Z,19.50
2022-08-11T06:01:11.259Z,19.70
2022-08-11T06:04:15.975Z,19.60
2022-08-11T06:07:09.412Z,20.00
2022-08-11T06:09:59.584Z,21.20
2022-08-11T06:12:55.889Z,21.70
2022-08-11T06:15:49.065Z,21.30
2022-08-11T06:18:38.882Z,21.00
2022-08-11T06:21:28.487Z,20.60
2022-08-11T06:24:17.837Z,20.40
2022-08-11T06:27:15.044Z,20.30
2022-08-11T06:30:13.544Z,20.50
2022-08-11T06:33:04.328Z,20.50
2022-08-11T06:36:03.840Z,20.60
2022-08-11T06:39:03.669Z,21.10
2022-08-11T06:41:57.724Z,21.80
2022-08-11T06:45:05.231Z,22.80
2022-08-11T06:47:58.159Z,22.30
2022-08-11T06:51:09.070Z,21.60
2022-08-11T06:54:04.353Z,21.40
2022-08-11T06:57:29.398Z,21.40
2022-08-11T07:00:33.449Z,21.60
2022-08-11T07:03:24.456Z,21.80
2022-08-11T07:06:35.734Z,21.60
2022-08-11T07:10:38.052Z,21.70
2022-08-11T07:13:47.576Z,21.80
2022-08-11T07:16:40.593Z,22.00
2022-08-11T07:19:49.379Z,22.10
2022-08-11T07:23:05.086Z,22.50
2022-08-11T07:26:12.826Z,22.60
2022-08-11T07:29:03.836Z,22.70
2022-08-11T07:31:55.112Z,22.80
2022-08-11T07:34:53.324Z,22.80
2022-08-11T07:37:44.834Z,23.20
2022-08-11T07:40:34.928Z,23.20
2022-08-11T07:43:23.810Z,23.40
2022-08-11T07:46:31.116Z,23.60
2022-08-11T07:49:38.256Z,23.80
2022-08-11T07:52:32.828Z,24.20
2022-08-11T07:55:49.107Z,24.60
2022-08-11T07:58:57.623Z,24.60
2022-08-11T08:02:07.893Z,24.60
2022-08-11T08:05:14.963Z,25.00
2022-08-11T08:08:24.098Z,25.10
2022-08-11T08:11:30.875Z,25.00
2022-08-11T08:14:37.981Z,25.30
2022-08-11T08:17:44.692Z,26.00
2022-08-11T08:20:55.108Z,26.20
2022-08-11T08:23:47.952Z,26.80
2022-08-11T08:26:59.692Z,26.70
2022-08-11T08:30:06.835Z,26.30
2022-08-11T08:32:57.963Z,26.50
2022-08-11T08:35:54.435Z,26.30
2022-08-11T08:38:50.458Z,26.60
2022-08-11T08:41:40.538Z,27.10
2022-08-11T08:44:40.868Z,27.50
2022-08-11T08:47:41.013Z,27.60
2022-08-11T08:50:54.030Z,27.60
2022-08-11T08:53:49.972Z,27.70
2022-08-11T08:56:44.344Z,27.60
2022-08-11T08:59:48.016Z,28.40
2022-08-11T09:02:38.449Z,28.20
2022-08-11T09:05:27.435Z,28.20
2022-08-11T09:08:18.832Z,27.90
2022-08-11T09:11:26.805Z,28.00
2022-08-11T09:14:15.667Z,27.60
2022-08-11T09:17:04.491Z,27.00
2022-08-11T09:20:00.350Z,27.50
2022-08-11T09:24:06.517Z,26.60
2022-08-11T09:26:36.553Z,27.40
2022-08-11T09:29:25.479Z,27.90
2022-08-11T09:32:15.132Z,28.70
2022-08-11T09:35:05.835Z,29.40
2022-08-11T09:38:13.294Z,29.60
2022-08-11T09:41:05.679Z,29.60
2022-08-11T09:44:27.971Z,29.70
2022-08-11T09:47:23.364Z,30.30
2022-08-11T09:50:15.969Z,30.40
2022-08-11T09:53:36.826Z,30.70
2022-08-11T09:56:35.289Z,31.70
2022-08-11T09:59:25.477Z,29.40
2022-08-11T10:02:15.266Z,30.90
2022-08-11T10:05:18.878Z,31.00
2022-08-11T10:08:10.294Z,30.80
2022-08-11T10:10:59.194Z,31.20
2022-08-11T10:14:32.105Z,30.60
2022-08-11T10:17:20.126Z,29.10
2022-08-11T10:20:12.807Z,27.40
2022-08-11T10:23:19.588Z,27.70
2022-08-11T10:26:27.445Z,30.20
2022-08-11T10:29:45.297Z,29.20
2022-08-11T10:33:00.100Z,28.50
2022-08-11T10:35:49.574Z,27.70
2022-08-11T10:38:38.762Z,27.20
2022-08-11T10:42:07.297Z,26.40
2022-08-11T10:44:57.202Z,27.80
2022-08-11T10:47:49.589Z,31.80
2022-08-11T10:50:56.777Z,33.60
2022-08-11T10:54:05.620Z,34.80
2022-08-11T10:57:13.935Z,35.30
2022-08-11T11:00:03.012Z,35.80
2022-08-11T11:03:07.096Z,35.70
2022-08-11T11:06:28.790Z,34.90
2022-08-11T11:09:20.714Z,34.10
2022-08-11T11:12:32.388Z,35.50
2022-08-11T11:15:41.000Z,36.50
2022-08-11T11:18:36.107Z,34.30
2022-08-11T11:21:30.469Z,36.00
2022-08-11T11:24:34.100Z,34.50
2022-08-11T11:27:31.837Z,31.00
2022-08-11T11:30:21.019Z,29.10
2022-08-11T11:33:16.990Z,29.20
2022-08-11T11:36:16.845Z,33.00
2022-08-11T11:39:05.912Z,33.30
2022-08-11T11:41:56.693Z,32.00
2022-08-11T11:44:47.106Z,29.40
2022-08-11T11:47:37.698Z,28.30
2022-08-11T11:50:31.861Z,27.40
2022-08-11T11:53:23.816Z,26.70
2022-08-11T11:56:13.680Z,26.70
2022-08-11T11:59:21.110Z,27.00
2022-08-11T12:02:12.425Z,32.70
2022-08-11T12:05:02.688Z,35.80
2022-08-11T12:08:13.054Z,37.80
2022-08-11T12:11:23.581Z,38.30
2022-08-11T12:17:02.416Z,40.70
2022-08-11T12:19:51.803Z,39.80
2022-08-11T12:22:59.030Z,38.00
2022-08-11T12:26:25.819Z,35.30
2022-08-11T12:29:17.194Z,31.30
2022-08-11T12:32:09.438Z,28.70
2022-08-11T12:34:58.619Z,28.30
2022-08-11T12:37:50.623Z,28.00
2022-08-11T12:44:27.703Z,27.70
2022-08-11T12:47:21.548Z,27.40
2022-08-11T12:50:28.233Z,27.30
2022-08-11T12:53:17.512Z,27.60
2022-08-11T12:56:25.762Z,27.40
2022-08-11T12:59:32.783Z,27.10
2022-08-11T13:02:44.439Z,26.90
2022-08-11T13:05:34.299Z,26.80
2022-08-11T13:08:32.864Z,26.60
2022-08-11T13:11:55.788Z,26.80
2022-08-11T13:14:46.370Z,26.40
2022-08-11T13:17:44.119Z,26.40
2022-08-11T13:20:33.624Z,26.40
2022-08-11T13:23:23.563Z,26.40
2022-08-11T13:26:12.835Z,26.50
2022-08-11T13:29:01.633Z,26.90
2022-08-11T13:31:51.340Z,26.50
2022-08-11T13:34:43.410Z,26.80
2022-08-11T13:38:19.313Z,26.70
2022-08-11T13:40:55.725Z,26.70
2022-08-11T13:43:46.293Z,26.20
2022-08-11T13:46:35.774Z,26.50
2022-08-11T13:49:25.624Z,26.20
2022-08-11T13:52:17.931Z,26.40
2022-08-11T13:55:08.847Z,26.40
2022-08-11T13:58:06.410Z,26.20
2022-08-11T14:02:03.774Z,26.50
2022-08-11T14:04:30.017Z,26.50
2022-08-11T14:07:24.039Z,26.80
2022-08-11T14:10:15.298Z,26.90
2022-08-11T14:13:26.554Z,27.00
2022-08-11T14:16:21.313Z,26.80
2022-08-11T14:19:14.012Z,26.80
2022-08-11T14:22:10.098Z,26.70
2022-08-11T14:25:00.684Z,26.50
2022-08-11T14:28:32.304Z,26.50
2022-08-11T14:31:01.753Z,26.70
2022-08-11T14:34:00.913Z,26.50
2022-08-11T14:36:53.398Z,26.50
2022-08-11T14:39:44.990Z,26.60
2022-08-11T14:42:52.807Z,26.50
2022-08-11T14:45:59.498Z,26.20
2022-08-11T14:48:48.320Z,26.00
2022-08-11T14:51:37.862Z,25.80
2022-08-11T14:54:46.729Z,25.70
2022-08-11T14:57:55.393Z,25.70
2022-08-11T15:00:46.377Z,25.80
2022-08-11T15:03:34.819Z,25.70
2022-08-11T15:06:23.570Z,25.60
2022-08-11T15:09:12.629Z,25.50
2022-08-11T15:12:32.309Z,25.50
2022-08-11T15:15:41.967Z,25.40
2022-08-11T15:18:31.274Z,25.50
2022-08-11T15:21:36.734Z,25.40
2022-08-11T15:24:27.940Z,25.40
2022-08-11T15:27:40.414Z,25.30
2022-08-11T15:30:49.318Z,25.30
2022-08-11T15:33:57.991Z,25.10
2022-08-11T15:37:06.375Z,25.20
2022-08-11T15:40:34.890Z,25.30
2022-08-11T15:43:47.548Z,25.20
2022-08-11T15:46:45.726Z,25.20
2022-08-11T15:50:11.813Z,25.20
2022-08-11T15:52:55.158Z,25.20
2022-08-11T15:55:44.642Z,25.20
2022-08-11T15:59:10.559Z,25.10
2022-08-11T16:02:25.134Z,24.90
2022-08-11T16:05:44.935Z,25.00
2022-08-11T16:08:32.758Z,25.00
2022-08-11T16:11:24.057Z,25.00
2022-08-11T16:14:34.396Z,24.80
2022-08-11T16:17:27.682Z,24.90
2022-08-11T16:20:20.026Z,24.80
2022-08-11T16:23:11.294Z,24.80
2022-08-11T16:27:08.535Z,24.70
2022-08-11T16:29:12.888Z,24.70
2022-08-11T16:32:23.554Z,24.80
2022-08-11T16:35:35.817Z,24.80
2022-08-11T16:38:37.142Z,24.80
2022-08-11T16:41:46.513Z,24.90
2022-08-11T16:44:53.483Z,24.80
2022-08-11T16:48:02.865Z,24.60
2022-08-11T16:50:53.145Z,24.50
2022-08-11T16:54:03.668Z,24.50
2022-08-11T16:56:54.762Z,24.40
2022-08-11T16:59:42.388Z,24.50
2022-08-11T17:02:54.147Z,24.40
2022-08-11T17:06:05.829Z,24.40
2022-08-11T17:09:13.468Z,24.40
2022-08-11T17:12:21.900Z,24.20
2022-08-11T17:15:29.691Z,24.40
2022-08-11T17:18:35.986Z,24.20
2022-08-11T17:21:27.545Z,24.20
2022-08-11T17:24:18.039Z,24.30
2022-08-11T17:27:08.929Z,24.30
2022-08-11T17:29:59.455Z,24.20
2022-08-11T17:33:09.031Z,24.10
2022-08-11T17:35:59.870Z,24.20
2022-08-11T17:38:49.931Z,24.00
2022-08-11T17:41:58.030Z,24.00
2022-08-11T17:45:05.453Z,24.00
2022-08-11T17:48:12.024Z,24.00
2022-08-11T17:51:02.873Z,23.80
2022-08-11T17:54:23.626Z,23.80
2022-08-11T17:57:34.080Z,23.70
2022-08-11T18:00:24.347Z,23.70
2022-08-11T18:03:34.121Z,23.80
2022-08-11T18:06:32.569Z,23.80
2022-08-11T18:09:43.073Z,23.70
2022-08-11T18:12:50.840Z,23.70
2022-08-11T18:15:59.211Z,23.60
2022-08-11T18:19:06.298Z,23.60
2022-08-11T18:22:16.851Z,23.70
2022-08-11T18:25:27.524Z,23.50
2022-08-11T18:28:40.340Z,23.50
2022-08-11T18:31:48.188Z,23.60
2022-08-11T18:35:00.368Z,23.60
2022-08-11T18:38:08.893Z,23.60
2022-08-11T18:41:16.079Z,23.60
2022-08-11T18:44:25.646Z,23.50
2022-08-11T18:47:34.963Z,23.50
2022-08-11T18:50:43.474Z,23.50
2022-08-11T18:53:56.077Z,23.40
2022-08-11T18:57:05.980Z,23.40
2022-08-11T19:00:14.800Z,23.30
2022-08-11T19:03:24.406Z,23.40
2022-08-11T19:06:39.200Z,23.30
2022-08-11T19:09:47.698Z,23.20
2022-08-11T19:12:57.182Z,23.20
2022-08-11T19:16:06.216Z,23.20
2022-08-11T19:19:13.439Z,23.20
2022-08-11T19:22:21.910Z,23.20
2022-08-11T19:25:30.750Z,23.20
2022-08-11T19:28:39.166Z,23.20
2022-08-11T19:31:48.324Z,23.20
2022-08-11T19:34:55.590Z,23.20
2022-08-11T19:38:04.450Z,23.30
2022-08-11T19:41:13.612Z,23.00
2022-08-11T19:44:24.539Z,23.10
2022-08-11T19:47:35.816Z,23.10
2022-08-11T19:50:42.706Z,23.00
2022-08-11T19:53:51.304Z,23.00
2022-08-11T19:56:58.742Z,23.00
2022-08-11T20:00:05.874Z,23.00
2022-08-11T20:03:13.623Z,23.00
2022-08-11T20:06:21.948Z,22.90
2022-08-11T20:10:04.630Z,22.90
2022-08-11T20:12:59.204Z,23.00
2022-08-11T20:16:05.931Z,22.90
2022-08-11T20:19:15.629Z,22.90
2022-08-11T20:22:22.363Z,22.80
2022-08-11T20:25:30.316Z,22.80
2022-08-11T20:28:38.773Z,22.80
2022-08-11T20:31:44.794Z,22.80
2022-08-11T20:34:55.179Z,22.80
2022-08-11T20:38:03.465Z,22.70
2022-08-11T20:41:10.508Z,22.70
2022-08-11T20:44:18.010Z,22.70
2022-08-11T20:47:26.439Z,22.70
2022-08-11T20:50:36.195Z,22.80
2022-08-11T20:53:45.613Z,22.70
2022-08-11T20:56:54.355Z,22.60
2022-08-11T21:00:01.927Z,22.50
2022-08-11T21:03:10.254Z,22.60
2022-08-11T21:09:58.831Z,22.50
2022-08-11T21:13:42.269Z,22.50
2022-08-11T21:16:53.291Z,22.60
2022-08-11T21:20:07.826Z,22.60
2022-08-11T21:23:23.933Z,22.60
2022-08-11T21:26:34.283Z,22.60
2022-08-11T21:29:42.183Z,22.50
2022-08-11T21:32:50.594Z,22.50
2022-08-11T21:35:57.032Z,22.50
2022-08-11T21:39:06.971Z,22.40
2022-08-11T21:42:13.567Z,22.50
2022-08-11T21:45:20.752Z,22.40
2022-08-11T21:48:29.561Z,22.40
2022-08-11T21:51:35.403Z,22.50
2022-08-11T21:54:44.861Z,22.60
2022-08-11T21:57:51.606Z,22.50
2022-08-11T22:00:58.262Z,22.50
2022-08-11T22:04:05.364Z,22.40
2022-08-11T22:07:12.167Z,22.40
2022-08-11T22:10:41.055Z,22.50
2022-08-11T22:14:02.959Z,22.50
2022-08-11T22:17:12.289Z,22.50
2022-08-11T22:20:20.327Z,22.40
2022-08-11T22:23:30.548Z,22.50
2022-08-11T22:26:47.463Z,22.40
2022-08-11T22:29:53.991Z,22.40
2022-08-11T22:33:01.547Z,22.40
2022-08-11T22:36:08.793Z,22.30
2022-08-11T22:39:19.065Z,22.30
2022-08-11T22:42:33.697Z,22.30
2022-08-11T22:45:40.952Z,22.20
2022-08-11T22:48:49.294Z,22.30
2022-08-11T22:51:57.684Z,22.30
2022-08-11T22:55:05.851Z,22.30
2022-08-11T22:58:17.484Z,22.30
2022-08-11T23:01:24.208Z,22.10
2022-08-11T23:04:31.723Z,22.10
2022-08-11T23:07:49.803Z,22.00
2022-08-11T23:10:58.143Z,22.00
2022-08-11T23:14:06.413Z,22.00
2022-08-11T23:17:13.835Z,22.00
2022-08-11T23:20:22.415Z,21.90
2022-08-11T23:23:43.766Z,21.90
2022-08-11T23:26:50.853Z,21.90
2022-08-11T23:30:00.206Z,21.80
2022-08-11T23:33:11.216Z,21.80
2022-08-11T23:36:35.866Z,21.80
2022-08-11T23:39:44.199Z,21.80
2022-08-11T23:42:56.117Z,21.70
2022-08-11T23:46:04.434Z,21.80
2022-08-11T23:49:15.558Z,21.70
2022-08-11T23:52:22.847Z,21.70
2022-08-11T23:55:29.142Z,21.70
2022-08-11T23:58:35.341Z,21.60
